sensor_id;sensor_type;location;lat;lon;timestamp;temperature;humidity
39931;DHT22;26635;-35.248;149.138;2023-05-07T00:00:50;8.90;92.90
39931;DHT22;26635;-35.248;149.138;2023-05-07T00:03:21;9.00;93.00
39931;DHT22;26635;-35.248;149.138;2023-05-07T00:05:53;8.90;92.40
39931;DHT22;26635;-35.248;149.138;2023-05-07T00:08:27;9.00;92.10
39931;DHT22;26635;-35.248;149.138;2023-05-07T00:10:58;8.90;89.90
39931;DHT22;26635;-35.248;149.138;2023-05-07T00:13:29;8.80;90.50
39931;DHT22;26635;-35.248;149.138;2023-05-07T00:16:05;8.90;92.00
39931;DHT22;26635;-35.248;149.138;2023-05-07T00:18:36;9.00;92.20
39931;DHT22;26635;-35.248;149.138;2023-05-07T00:21:09;9.10;88.90
39931;DHT22;26635;-35.248;149.138;2023-05-07T00:23:39;9.20;87.60
39931;DHT22;26635;-35.248;149.138;2023-05-07T00:26:09;9.20;89.10
39931;DHT22;26635;-35.248;149.138;2023-05-07T00:28:40;9.30;89.70
39931;DHT22;26635;-35.248;149.138;2023-05-07T00:31:10;9.40;90.40
39931;DHT22;26635;-35.248;149.138;2023-05-07T00:33:41;9.50;91.00
39931;DHT22;26635;-35.248;149.138;2023-05-07T00:36:11;9.50;89.60
39931;DHT22;26635;-35.248;149.138;2023-05-07T00:38:41;9.60;90.00
39931;DHT22;26635;-35.248;149.138;2023-05-07T00:41:12;9.70;88.60
39931;DHT22;26635;-35.248;149.138;2023-05-07T00:43:42;9.70;87.70
39931;DHT22;26635;-35.248;149.138;2023-05-07T00:46:13;9.70;87.50
39931;DHT22;26635;-35.248;149.138;2023-05-07T00:48:44;9.70;87.60
39931;DHT22;26635;-35.248;149.138;2023-05-07T00:51:15;9.70;84.60
39931;DHT22;26635;-35.248;149.138;2023-05-07T00:53:45;9.70;84.60
39931;DHT22;26635;-35.248;149.138;2023-05-07T00:56:16;9.60;83.80
39931;DHT22;26635;-35.248;149.138;2023-05-07T00:58:48;9.60;86.00
39931;DHT22;26635;-35.248;149.138;2023-05-07T01:01:19;9.70;87.00
39931;DHT22;26635;-35.248;149.138;2023-05-07T01:03:49;9.80;88.30
39931;DHT22;26635;-35.248;149.138;2023-05-07T01:06:21;9.80;87.10
39931;DHT22;26635;-35.248;149.138;2023-05-07T01:08:53;9.80;88.30
39931;DHT22;26635;-35.248;149.138;2023-05-07T01:11:26;9.80;87.80
39931;DHT22;26635;-35.248;149.138;2023-05-07T01:13:59;9.70;88.50
39931;DHT22;26635;-35.248;149.138;2023-05-07T01:16:30;9.70;87.70
39931;DHT22;26635;-35.248;149.138;2023-05-07T01:19:02;9.60;88.80
39931;DHT22;26635;-35.248;149.138;2023-05-07T01:21:35;9.60;90.10
39931;DHT22;26635;-35.248;149.138;2023-05-07T01:24:15;9.50;90.00
39931;DHT22;26635;-35.248;149.138;2023-05-07T01:26:46;9.50;90.30
39931;DHT22;26635;-35.248;149.138;2023-05-07T01:29:16;9.60;90.00
39931;DHT22;26635;-35.248;149.138;2023-05-07T01:31:47;9.70;83.40
39931;DHT22;26635;-35.248;149.138;2023-05-07T01:34:19;9.80;84.70
39931;DHT22;26635;-35.248;149.138;2023-05-07T01:36:53;10.00;84.30
39931;DHT22;26635;-35.248;149.138;2023-05-07T01:39:28;10.20;84.10
39931;DHT22;26635;-35.248;149.138;2023-05-07T01:41:59;10.20;82.60
39931;DHT22;26635;-35.248;149.138;2023-05-07T01:44:30;10.20;84.00
39931;DHT22;26635;-35.248;149.138;2023-05-07T01:47:01;10.10;80.90
39931;DHT22;26635;-35.248;149.138;2023-05-07T01:49:32;10.00;81.40
39931;DHT22;26635;-35.248;149.138;2023-05-07T01:52:02;9.90;82.60
39931;DHT22;26635;-35.248;149.138;2023-05-07T01:54:33;9.80;84.60
39931;DHT22;26635;-35.248;149.138;2023-05-07T01:57:03;9.80;83.60
39931;DHT22;26635;-35.248;149.138;2023-05-07T01:59:34;9.70;85.40
39931;DHT22;26635;-35.248;149.138;2023-05-07T02:02:04;9.70;85.50
39931;DHT22;26635;-35.248;149.138;2023-05-07T02:04:35;9.70;85.50
39931;DHT22;26635;-35.248;149.138;2023-05-07T02:07:06;9.70;84.90
39931;DHT22;26635;-35.248;149.138;2023-05-07T02:09:36;9.60;84.00
39931;DHT22;26635;-35.248;149.138;2023-05-07T02:12:06;9.50;86.70
39931;DHT22;26635;-35.248;149.138;2023-05-07T02:14:37;9.50;87.40
39931;DHT22;26635;-35.248;149.138;2023-05-07T02:17:07;9.50;87.50
39931;DHT22;26635;-35.248;149.138;2023-05-07T02:19:38;9.50;90.00
39931;DHT22;26635;-35.248;149.138;2023-05-07T02:22:09;9.50;90.50
39931;DHT22;26635;-35.248;149.138;2023-05-07T02:24:39;9.40;89.50
39931;DHT22;26635;-35.248;149.138;2023-05-07T02:27:10;9.40;88.90
39931;DHT22;26635;-35.248;149.138;2023-05-07T02:29:40;9.40;88.90
39931;DHT22;26635;-35.248;149.138;2023-05-07T02:32:11;9.30;88.70
39931;DHT22;26635;-35.248;149.138;2023-05-07T02:34:41;9.30;90.00
39931;DHT22;26635;-35.248;149.138;2023-05-07T02:37:12;9.20;88.40
39931;DHT22;26635;-35.248;149.138;2023-05-07T02:39:43;9.20;88.70
39931;DHT22;26635;-35.248;149.138;2023-05-07T02:42:13;9.20;90.40
39931;DHT22;26635;-35.248;149.138;2023-05-07T02:44:44;9.20;88.30
39931;DHT22;26635;-35.248;149.138;2023-05-07T02:47:16;9.10;88.80
39931;DHT22;26635;-35.248;149.138;2023-05-07T02:49:46;9.00;87.50
39931;DHT22;26635;-35.248;149.138;2023-05-07T02:52:17;9.00;88.80
39931;DHT22;26635;-35.248;149.138;2023-05-07T02:54:48;8.90;89.80
39931;DHT22;26635;-35.248;149.138;2023-05-07T02:57:18;8.80;89.50
39931;DHT22;26635;-35.248;149.138;2023-05-07T02:59:48;8.70;88.60
39931;DHT22;26635;-35.248;149.138;2023-05-07T03:02:20;8.60;89.60
39931;DHT22;26635;-35.248;149.138;2023-05-07T03:04:52;8.50;91.30
39931;DHT22;26635;-35.248;149.138;2023-05-07T03:07:23;8.40;91.10
39931;DHT22;26635;-35.248;149.138;2023-05-07T03:09:53;8.40;90.90
39931;DHT22;26635;-35.248;149.138;2023-05-07T03:12:24;8.30;91.40
39931;DHT22;26635;-35.248;149.138;2023-05-07T03:14:54;8.20;91.10
39931;DHT22;26635;-35.248;149.138;2023-05-07T03:17:24;8.10;91.90
39931;DHT22;26635;-35.248;149.138;2023-05-07T03:19:55;8.10;92.90
39931;DHT22;26635;-35.248;149.138;2023-05-07T03:22:26;8.00;92.50
39931;DHT22;26635;-35.248;149.138;2023-05-07T03:24:56;8.00;93.50
39931;DHT22;26635;-35.248;149.138;2023-05-07T03:27:27;8.00;94.10
39931;DHT22;26635;-35.248;149.138;2023-05-07T03:29:57;7.90;94.10
39931;DHT22;26635;-35.248;149.138;2023-05-07T03:32:28;7.90;93.90
39931;DHT22;26635;-35.248;149.138;2023-05-07T03:34:59;7.80;93.30
39931;DHT22;26635;-35.248;149.138;2023-05-07T03:37:29;7.70;92.50
39931;DHT22;26635;-35.248;149.138;2023-05-07T03:39:59;7.60;94.00
39931;DHT22;26635;-35.248;149.138;2023-05-07T03:42:33;7.50;93.00
39931;DHT22;26635;-35.248;149.138;2023-05-07T03:45:04;7.50;93.50
39931;DHT22;26635;-35.248;149.138;2023-05-07T03:47:35;7.50;93.60
39931;DHT22;26635;-35.248;149.138;2023-05-07T03:50:06;7.40;93.40
39931;DHT22;26635;-35.248;149.138;2023-05-07T03:52:37;7.40;94.20
39931;DHT22;26635;-35.248;149.138;2023-05-07T03:55:08;7.40;94.70
39931;DHT22;26635;-35.248;149.138;2023-05-07T03:57:38;7.40;94.50
39931;DHT22;26635;-35.248;149.138;2023-05-07T04:00:09;7.30;94.10
39931;DHT22;26635;-35.248;149.138;2023-05-07T04:02:40;7.30;94.20
39931;DHT22;26635;-35.248;149.138;2023-05-07T04:05:11;7.20;94.50
39931;DHT22;26635;-35.248;149.138;2023-05-07T04:07:42;7.10;94.10
39931;DHT22;26635;-35.248;149.138;2023-05-07T04:10:14;7.10;94.80
39931;DHT22;26635;-35.248;149.138;2023-05-07T04:12:45;7.10;95.10
39931;DHT22;26635;-35.248;149.138;2023-05-07T04:15:15;7.00;94.50
39931;DHT22;26635;-35.248;149.138;2023-05-07T04:17:46;7.00;95.00
39931;DHT22;26635;-35.248;149.138;2023-05-07T04:20:17;7.00;95.10
39931;DHT22;26635;-35.248;149.138;2023-05-07T04:22:48;7.00;94.90
39931;DHT22;26635;-35.248;149.138;2023-05-07T04:25:19;6.90;95.00
39931;DHT22;26635;-35.248;149.138;2023-05-07T04:27:50;6.90;95.20
39931;DHT22;26635;-35.248;149.138;2023-05-07T04:30:25;6.80;95.50
39931;DHT22;26635;-35.248;149.138;2023-05-07T04:32:55;6.80;95.40
39931;DHT22;26635;-35.248;149.138;2023-05-07T04:35:27;6.80;95.20
39931;DHT22;26635;-35.248;149.138;2023-05-07T04:37:57;6.70;95.80
39931;DHT22;26635;-35.248;149.138;2023-05-07T04:40:28;6.70;96.00
39931;DHT22;26635;-35.248;149.138;2023-05-07T04:42:59;6.80;96.30
39931;DHT22;26635;-35.248;149.138;2023-05-07T04:45:31;6.80;95.40
39931;DHT22;26635;-35.248;149.138;2023-05-07T04:48:01;6.70;95.00
39931;DHT22;26635;-35.248;149.138;2023-05-07T04:50:32;6.70;94.70
39931;DHT22;26635;-35.248;149.138;2023-05-07T04:53:03;6.60;95.30
39931;DHT22;26635;-35.248;149.138;2023-05-07T04:55:34;6.60;95.40
39931;DHT22;26635;-35.248;149.138;2023-05-07T04:58:07;6.60;95.30
39931;DHT22;26635;-35.248;149.138;2023-05-07T05:00:38;6.50;95.50
39931;DHT22;26635;-35.248;149.138;2023-05-07T05:03:12;6.50;95.50
39931;DHT22;26635;-35.248;149.138;2023-05-07T05:05:44;6.50;95.30
39931;DHT22;26635;-35.248;149.138;2023-05-07T05:08:17;6.50;95.00
39931;DHT22;26635;-35.248;149.138;2023-05-07T05:10:52;6.50;94.70
39931;DHT22;26635;-35.248;149.138;2023-05-07T05:13:23;6.40;94.60
39931;DHT22;26635;-35.248;149.138;2023-05-07T05:15:54;6.50;94.80
39931;DHT22;26635;-35.248;149.138;2023-05-07T05:18:26;6.50;94.80
39931;DHT22;26635;-35.248;149.138;2023-05-07T05:20:58;6.50;95.40
39931;DHT22;26635;-35.248;149.138;2023-05-07T05:23:29;6.40;95.40
39931;DHT22;26635;-35.248;149.138;2023-05-07T05:26:01;6.40;96.10
39931;DHT22;26635;-35.248;149.138;2023-05-07T05:28:33;6.40;96.50
39931;DHT22;26635;-35.248;149.138;2023-05-07T05:31:05;6.40;95.20
39931;DHT22;26635;-35.248;149.138;2023-05-07T05:33:37;6.40;95.70
39931;DHT22;26635;-35.248;149.138;2023-05-07T05:36:12;6.40;96.90
39931;DHT22;26635;-35.248;149.138;2023-05-07T05:38:43;6.40;96.60
39931;DHT22;26635;-35.248;149.138;2023-05-07T05:41:15;6.40;96.40
39931;DHT22;26635;-35.248;149.138;2023-05-07T05:43:46;6.40;97.40
39931;DHT22;26635;-35.248;149.138;2023-05-07T05:46:18;6.40;97.00
39931;DHT22;26635;-35.248;149.138;2023-05-07T05:48:49;6.40;96.40
39931;DHT22;26635;-35.248;149.138;2023-05-07T05:51:21;6.40;96.40
39931;DHT22;26635;-35.248;149.138;2023-05-07T05:53:53;6.40;96.50
39931;DHT22;26635;-35.248;149.138;2023-05-07T05:56:24;6.40;96.70
39931;DHT22;26635;-35.248;149.138;2023-05-07T05:58:57;6.40;96.40
39931;DHT22;26635;-35.248;149.138;2023-05-07T06:01:28;6.40;96.40
39931;DHT22;26635;-35.248;149.138;2023-05-07T06:03:59;6.40;95.80
39931;DHT22;26635;-35.248;149.138;2023-05-07T06:06:30;6.30;95.90
39931;DHT22;26635;-35.248;149.138;2023-05-07T06:09:01;6.30;96.70
39931;DHT22;26635;-35.248;149.138;2023-05-07T06:11:33;6.40;96.60
39931;DHT22;26635;-35.248;149.138;2023-05-07T06:14:05;6.40;96.40
39931;DHT22;26635;-35.248;149.138;2023-05-07T06:16:36;6.40;96.70
39931;DHT22;26635;-35.248;149.138;2023-05-07T06:19:08;6.50;96.20
39931;DHT22;26635;-35.248;149.138;2023-05-07T06:21:39;6.50;97.30
39931;DHT22;26635;-35.248;149.138;2023-05-07T06:24:11;6.50;97.10
39931;DHT22;26635;-35.248;149.138;2023-05-07T06:26:43;6.50;96.90
39931;DHT22;26635;-35.248;149.138;2023-05-07T06:29:15;6.50;96.70
39931;DHT22;26635;-35.248;149.138;2023-05-07T06:31:46;6.50;96.70
39931;DHT22;26635;-35.248;149.138;2023-05-07T06:34:17;6.50;97.10
39931;DHT22;26635;-35.248;149.138;2023-05-07T06:36:48;6.60;96.80
39931;DHT22;26635;-35.248;149.138;2023-05-07T06:39:19;6.60;96.50
39931;DHT22;26635;-35.248;149.138;2023-05-07T06:41:50;6.60;97.00
39931;DHT22;26635;-35.248;149.138;2023-05-07T06:44:21;6.60;96.70
39931;DHT22;26635;-35.248;149.138;2023-05-07T06:46:52;6.60;96.80
39931;DHT22;26635;-35.248;149.138;2023-05-07T06:49:24;6.60;96.90
39931;DHT22;26635;-35.248;149.138;2023-05-07T06:51:54;6.60;97.00
39931;DHT22;26635;-35.248;149.138;2023-05-07T06:54:27;6.60;96.90
39931;DHT22;26635;-35.248;149.138;2023-05-07T06:56:59;6.60;96.70
39931;DHT22;26635;-35.248;149.138;2023-05-07T06:59:31;6.60;97.10
39931;DHT22;26635;-35.248;149.138;2023-05-07T07:02:01;6.60;96.70
39931;DHT22;26635;-35.248;149.138;2023-05-07T07:04:33;6.60;96.50
39931;DHT22;26635;-35.248;149.138;2023-05-07T07:07:04;6.60;96.30
39931;DHT22;26635;-35.248;149.138;2023-05-07T07:09:36;6.60;96.70
39931;DHT22;26635;-35.248;149.138;2023-05-07T07:12:07;6.60;97.00
39931;DHT22;26635;-35.248;149.138;2023-05-07T07:14:38;6.60;97.00
39931;DHT22;26635;-35.248;149.138;2023-05-07T07:17:09;6.70;96.90
39931;DHT22;26635;-35.248;149.138;2023-05-07T07:19:40;6.60;96.50
39931;DHT22;26635;-35.248;149.138;2023-05-07T07:22:11;6.60;96.50
39931;DHT22;26635;-35.248;149.138;2023-05-07T07:24:42;6.60;96.20
39931;DHT22;26635;-35.248;149.138;2023-05-07T07:27:13;6.60;95.60
39931;DHT22;26635;-35.248;149.138;2023-05-07T07:29:43;6.60;95.90
39931;DHT22;26635;-35.248;149.138;2023-05-07T07:32:15;6.60;96.10
39931;DHT22;26635;-35.248;149.138;2023-05-07T07:34:47;6.60;96.10
39931;DHT22;26635;-35.248;149.138;2023-05-07T07:37:18;6.70;96.00
39931;DHT22;26635;-35.248;149.138;2023-05-07T07:39:49;6.70;96.40
39931;DHT22;26635;-35.248;149.138;2023-05-07T07:42:20;6.70;96.50
39931;DHT22;26635;-35.248;149.138;2023-05-07T07:44:50;6.70;96.70
39931;DHT22;26635;-35.248;149.138;2023-05-07T07:47:21;6.60;96.80
39931;DHT22;26635;-35.248;149.138;2023-05-07T07:49:52;6.60;96.60
39931;DHT22;26635;-35.248;149.138;2023-05-07T07:52:22;6.70;96.90
39931;DHT22;26635;-35.248;149.138;2023-05-07T07:54:53;6.70;97.90
39931;DHT22;26635;-35.248;149.138;2023-05-07T07:57:24;6.70;97.70
39931;DHT22;26635;-35.248;149.138;2023-05-07T07:59:55;6.70;97.40
39931;DHT22;26635;-35.248;149.138;2023-05-07T08:02:29;6.70;97.30
39931;DHT22;26635;-35.248;149.138;2023-05-07T08:05:02;6.70;98.10
39931;DHT22;26635;-35.248;149.138;2023-05-07T08:07:33;6.70;98.00
39931;DHT22;26635;-35.248;149.138;2023-05-07T08:10:04;6.70;97.50
39931;DHT22;26635;-35.248;149.138;2023-05-07T08:12:35;6.70;97.40
39931;DHT22;26635;-35.248;149.138;2023-05-07T08:15:07;6.70;97.30
39931;DHT22;26635;-35.248;149.138;2023-05-07T08:17:37;6.70;96.80
39931;DHT22;26635;-35.248;149.138;2023-05-07T08:20:10;6.70;96.90
39931;DHT22;26635;-35.248;149.138;2023-05-07T08:22:41;6.70;97.10
39931;DHT22;26635;-35.248;149.138;2023-05-07T08:25:12;6.70;97.00
39931;DHT22;26635;-35.248;149.138;2023-05-07T08:27:42;6.70;97.20
39931;DHT22;26635;-35.248;149.138;2023-05-07T08:30:15;6.70;97.20
39931;DHT22;26635;-35.248;149.138;2023-05-07T08:32:45;6.70;97.10
39931;DHT22;26635;-35.248;149.138;2023-05-07T08:35:18;6.70;97.70
39931;DHT22;26635;-35.248;149.138;2023-05-07T08:37:50;6.70;98.20
39931;DHT22;26635;-35.248;149.138;2023-05-07T08:40:24;6.70;97.80
39931;DHT22;26635;-35.248;149.138;2023-05-07T08:42:56;6.70;97.60
39931;DHT22;26635;-35.248;149.138;2023-05-07T08:45:28;6.70;97.90
39931;DHT22;26635;-35.248;149.138;2023-05-07T08:48:03;6.80;97.60
39931;DHT22;26635;-35.248;149.138;2023-05-07T08:50:39;6.70;97.80
39931;DHT22;26635;-35.248;149.138;2023-05-07T08:53:14;6.80;97.60
39931;DHT22;26635;-35.248;149.138;2023-05-07T08:55:46;6.70;97.80
39931;DHT22;26635;-35.248;149.138;2023-05-07T08:58:17;6.80;98.30
39931;DHT22;26635;-35.248;149.138;2023-05-07T09:00:53;6.80;97.60
39931;DHT22;26635;-35.248;149.138;2023-05-07T09:03:24;6.80;97.40
39931;DHT22;26635;-35.248;149.138;2023-05-07T09:05:55;6.80;98.30
39931;DHT22;26635;-35.248;149.138;2023-05-07T09:08:29;6.70;98.70
39931;DHT22;26635;-35.248;149.138;2023-05-07T09:11:01;6.70;98.50
39931;DHT22;26635;-35.248;149.138;2023-05-07T09:13:32;6.70;98.10
39931;DHT22;26635;-35.248;149.138;2023-05-07T09:16:13;6.70;98.50
39931;DHT22;26635;-35.248;149.138;2023-05-07T09:18:45;6.70;98.20
39931;DHT22;26635;-35.248;149.138;2023-05-07T09:21:19;6.70;97.80
39931;DHT22;26635;-35.248;149.138;2023-05-07T09:23:58;6.70;97.80
39931;DHT22;26635;-35.248;149.138;2023-05-07T09:26:32;6.70;97.80
39931;DHT22;26635;-35.248;149.138;2023-05-07T09:29:18;6.70;97.50
39931;DHT22;26635;-35.248;149.138;2023-05-07T09:32:15;6.70;97.50
39931;DHT22;26635;-35.248;149.138;2023-05-07T09:35:17;6.70;97.70
39931;DHT22;26635;-35.248;149.138;2023-05-07T09:37:49;6.70;97.50
39931;DHT22;26635;-35.248;149.138;2023-05-07T09:40:26;6.70;97.50
39931;DHT22;26635;-35.248;149.138;2023-05-07T09:43:09;6.70;97.50
39931;DHT22;26635;-35.248;149.138;2023-05-07T09:45:43;6.70;98.00
39931;DHT22;26635;-35.248;149.138;2023-05-07T09:48:17;6.70;98.10
39931;DHT22;26635;-35.248;149.138;2023-05-07T09:50:52;6.70;98.40
39931;DHT22;26635;-35.248;149.138;2023-05-07T09:53:29;6.70;98.90
39931;DHT22;26635;-35.248;149.138;2023-05-07T09:56:02;6.60;98.30
39931;DHT22;26635;-35.248;149.138;2023-05-07T09:58:40;6.70;97.90
39931;DHT22;26635;-35.248;149.138;2023-05-07T10:01:14;6.60;97.70
39931;DHT22;26635;-35.248;149.138;2023-05-07T10:03:50;6.60;97.30
39931;DHT22;26635;-35.248;149.138;2023-05-07T10:06:25;6.60;97.20
39931;DHT22;26635;-35.248;149.138;2023-05-07T10:08:57;6.60;97.00
39931;DHT22;26635;-35.248;149.138;2023-05-07T10:11:36;6.60;96.90
39931;DHT22;26635;-35.248;149.138;2023-05-07T10:14:20;6.60;96.90
39931;DHT22;26635;-35.248;149.138;2023-05-07T10:17:00;6.60;97.30
39931;DHT22;26635;-35.248;149.138;2023-05-07T10:19:35;6.50;96.90
39931;DHT22;26635;-35.248;149.138;2023-05-07T10:22:10;6.50;97.40
39931;DHT22;26635;-35.248;149.138;2023-05-07T10:24:44;6.40;97.10
39931;DHT22;26635;-35.248;149.138;2023-05-07T10:27:15;6.40;98.30
39931;DHT22;26635;-35.248;149.138;2023-05-07T10:33:09;6.30;96.00
39931;DHT22;26635;-35.248;149.138;2023-05-07T10:35:44;6.20;95.40
39931;DHT22;26635;-35.248;149.138;2023-05-07T10:38:27;6.20;95.80
39931;DHT22;26635;-35.248;149.138;2023-05-07T10:41:01;6.10;96.20
39931;DHT22;26635;-35.248;149.138;2023-05-07T10:43:43;6.00;96.10
39931;DHT22;26635;-35.248;149.138;2023-05-07T10:46:20;6.00;95.80
39931;DHT22;26635;-35.248;149.138;2023-05-07T10:51:38;5.90;96.10
39931;DHT22;26635;-35.248;149.138;2023-05-07T10:56:43;5.80;96.90
39931;DHT22;26635;-35.248;149.138;2023-05-07T10:59:33;5.80;96.40
39931;DHT22;26635;-35.248;149.138;2023-05-07T11:02:16;5.80;96.80
39931;DHT22;26635;-35.248;149.138;2023-05-07T11:05:20;5.80;95.90
39931;DHT22;26635;-35.248;149.138;2023-05-07T11:08:01;5.80;96.60
39931;DHT22;26635;-35.248;149.138;2023-05-07T11:10:54;5.70;96.30
39931;DHT22;26635;-35.248;149.138;2023-05-07T11:13:44;5.70;97.00
39931;DHT22;26635;-35.248;149.138;2023-05-07T11:16:19;5.70;96.60
39931;DHT22;26635;-35.248;149.138;2023-05-07T11:18:53;5.70;97.00
39931;DHT22;26635;-35.248;149.138;2023-05-07T11:21:47;5.60;97.50
39931;DHT22;26635;-35.248;149.138;2023-05-07T11:24:25;5.60;97.10
39931;DHT22;26635;-35.248;149.138;2023-05-07T11:26:57;5.60;97.20
39931;DHT22;26635;-35.248;149.138;2023-05-07T11:29:28;5.60;96.90
39931;DHT22;26635;-35.248;149.138;2023-05-07T11:32:01;5.60;97.10
39931;DHT22;26635;-35.248;149.138;2023-05-07T11:34:34;5.70;97.20
39931;DHT22;26635;-35.248;149.138;2023-05-07T11:37:05;5.60;96.30
39931;DHT22;26635;-35.248;149.138;2023-05-07T11:39:41;5.60;96.40
39931;DHT22;26635;-35.248;149.138;2023-05-07T11:42:46;5.60;95.80
39931;DHT22;26635;-35.248;149.138;2023-05-07T11:45:24;5.50;95.90
39931;DHT22;26635;-35.248;149.138;2023-05-07T11:47:59;5.50;96.30
39931;DHT22;26635;-35.248;149.138;2023-05-07T11:50:34;5.50;97.00
39931;DHT22;26635;-35.248;149.138;2023-05-07T11:53:08;5.50;96.90
39931;DHT22;26635;-35.248;149.138;2023-05-07T11:55:41;5.60;97.50
39931;DHT22;26635;-35.248;149.138;2023-05-07T11:58:18;5.60;97.30
39931;DHT22;26635;-35.248;149.138;2023-05-07T12:00:53;5.60;97.40
39931;DHT22;26635;-35.248;149.138;2023-05-07T12:03:28;5.60;96.80
39931;DHT22;26635;-35.248;149.138;2023-05-07T12:06:07;5.70;96.80
39931;DHT22;26635;-35.248;149.138;2023-05-07T12:08:39;5.60;97.50
39931;DHT22;26635;-35.248;149.138;2023-05-07T12:11:26;5.70;96.90
39931;DHT22;26635;-35.248;149.138;2023-05-07T12:13:59;5.60;96.00
39931;DHT22;26635;-35.248;149.138;2023-05-07T12:16:39;5.60;96.10
39931;DHT22;26635;-35.248;149.138;2023-05-07T12:19:12;5.60;96.30
39931;DHT22;26635;-35.248;149.138;2023-05-07T12:21:43;5.60;96.20
39931;DHT22;26635;-35.248;149.138;2023-05-07T12:24:17;5.60;96.50
39931;DHT22;26635;-35.248;149.138;2023-05-07T12:27:01;5.50;95.90
39931;DHT22;26635;-35.248;149.138;2023-05-07T12:29:33;5.50;96.10
39931;DHT22;26635;-35.248;149.138;2023-05-07T12:32:05;5.50;96.70
39931;DHT22;26635;-35.248;149.138;2023-05-07T12:34:37;5.60;96.50
39931;DHT22;26635;-35.248;149.138;2023-05-07T12:37:13;5.50;96.10
39931;DHT22;26635;-35.248;149.138;2023-05-07T12:39:49;5.50;95.90
39931;DHT22;26635;-35.248;149.138;2023-05-07T12:42:21;5.50;96.10
39931;DHT22;26635;-35.248;149.138;2023-05-07T12:44:57;5.50;96.10
39931;DHT22;26635;-35.248;149.138;2023-05-07T12:47:28;5.50;95.70
39931;DHT22;26635;-35.248;149.138;2023-05-07T12:50:00;5.40;95.80
39931;DHT22;26635;-35.248;149.138;2023-05-07T12:52:31;5.40;95.80
39931;DHT22;26635;-35.248;149.138;2023-05-07T12:55:07;5.40;95.40
39931;DHT22;26635;-35.248;149.138;2023-05-07T12:57:40;5.40;96.00
39931;DHT22;26635;-35.248;149.138;2023-05-07T13:02:54;5.40;96.20
39931;DHT22;26635;-35.248;149.138;2023-05-07T13:05:26;5.40;97.00
39931;DHT22;26635;-35.248;149.138;2023-05-07T13:07:57;5.40;96.30
39931;DHT22;26635;-35.248;149.138;2023-05-07T13:10:30;5.40;97.20
39931;DHT22;26635;-35.248;149.138;2023-05-07T13:13:02;5.40;96.40
39931;DHT22;26635;-35.248;149.138;2023-05-07T13:15:33;5.40;96.20
39931;DHT22;26635;-35.248;149.138;2023-05-07T13:18:04;5.40;96.00
39931;DHT22;26635;-35.248;149.138;2023-05-07T13:20:36;5.40;95.50
39931;DHT22;26635;-35.248;149.138;2023-05-07T13:23:08;5.30;95.80
39931;DHT22;26635;-35.248;149.138;2023-05-07T13:25:38;5.30;95.20
39931;DHT22;26635;-35.248;149.138;2023-05-07T13:28:09;5.30;94.90
39931;DHT22;26635;-35.248;149.138;2023-05-07T13:30:40;5.30;94.80
39931;DHT22;26635;-35.248;149.138;2023-05-07T13:33:12;5.20;95.00
39931;DHT22;26635;-35.248;149.138;2023-05-07T13:35:43;5.20;94.50
39931;DHT22;26635;-35.248;149.138;2023-05-07T13:38:13;5.20;93.80
39931;DHT22;26635;-35.248;149.138;2023-05-07T13:40:55;5.20;93.00
39931;DHT22;26635;-35.248;149.138;2023-05-07T13:43:25;5.20;92.80
39931;DHT22;26635;-35.248;149.138;2023-05-07T13:45:55;5.30;93.70
39931;DHT22;26635;-35.248;149.138;2023-05-07T13:48:26;5.30;93.70
39931;DHT22;26635;-35.248;149.138;2023-05-07T13:50:57;5.30;93.70
39931;DHT22;26635;-35.248;149.138;2023-05-07T13:53:28;5.30;94.00
39931;DHT22;26635;-35.248;149.138;2023-05-07T13:56:02;5.20;94.50
39931;DHT22;26635;-35.248;149.138;2023-05-07T13:58:34;5.10;94.50
39931;DHT22;26635;-35.248;149.138;2023-05-07T14:01:26;5.10;94.20
39931;DHT22;26635;-35.248;149.138;2023-05-07T14:03:56;5.10;94.60
39931;DHT22;26635;-35.248;149.138;2023-05-07T14:06:30;5.10;94.30
39931;DHT22;26635;-35.248;149.138;2023-05-07T14:09:00;5.10;94.70
39931;DHT22;26635;-35.248;149.138;2023-05-07T14:11:31;5.10;94.60
39931;DHT22;26635;-35.248;149.138;2023-05-07T14:14:03;5.10;94.70
39931;DHT22;26635;-35.248;149.138;2023-05-07T14:16:33;5.10;95.00
39931;DHT22;26635;-35.248;149.138;2023-05-07T14:19:03;5.10;95.80
39931;DHT22;26635;-35.248;149.138;2023-05-07T14:21:34;5.00;95.90
39931;DHT22;26635;-35.248;149.138;2023-05-07T14:24:06;5.00;95.80
39931;DHT22;26635;-35.248;149.138;2023-05-07T14:26:37;5.00;96.20
39931;DHT22;26635;-35.248;149.138;2023-05-07T14:29:07;5.00;96.50
39931;DHT22;26635;-35.248;149.138;2023-05-07T14:31:38;5.00;95.70
39931;DHT22;26635;-35.248;149.138;2023-05-07T14:34:09;5.00;96.50
39931;DHT22;26635;-35.248;149.138;2023-05-07T14:36:40;5.00;96.70
39931;DHT22;26635;-35.248;149.138;2023-05-07T14:39:10;5.00;96.40
39931;DHT22;26635;-35.248;149.138;2023-05-07T14:41:41;5.00;96.40
39931;DHT22;26635;-35.248;149.138;2023-05-07T14:44:11;5.00;96.20
39931;DHT22;26635;-35.248;149.138;2023-05-07T14:46:42;5.00;96.40
39931;DHT22;26635;-35.248;149.138;2023-05-07T14:49:13;5.00;96.60
39931;DHT22;26635;-35.248;149.138;2023-05-07T14:51:47;5.00;96.30
39931;DHT22;26635;-35.248;149.138;2023-05-07T14:54:18;5.00;95.90
39931;DHT22;26635;-35.248;149.138;2023-05-07T14:56:49;5.00;95.90
39931;DHT22;26635;-35.248;149.138;2023-05-07T14:59:20;5.00;95.60
39931;DHT22;26635;-35.248;149.138;2023-05-07T15:01:50;4.90;95.60
39931;DHT22;26635;-35.248;149.138;2023-05-07T15:04:21;5.00;95.30
39931;DHT22;26635;-35.248;149.138;2023-05-07T15:06:51;4.90;95.90
39931;DHT22;26635;-35.248;149.138;2023-05-07T15:09:23;4.90;95.40
39931;DHT22;26635;-35.248;149.138;2023-05-07T15:11:54;4.90;95.40
39931;DHT22;26635;-35.248;149.138;2023-05-07T15:14:25;4.80;95.40
39931;DHT22;26635;-35.248;149.138;2023-05-07T15:16:55;4.80;95.80
39931;DHT22;26635;-35.248;149.138;2023-05-07T15:19:26;4.70;95.80
39931;DHT22;26635;-35.248;149.138;2023-05-07T15:21:59;4.70;95.00
39931;DHT22;26635;-35.248;149.138;2023-05-07T15:24:32;4.60;95.10
39931;DHT22;26635;-35.248;149.138;2023-05-07T15:27:03;4.60;95.30
39931;DHT22;26635;-35.248;149.138;2023-05-07T15:29:33;4.60;95.50
39931;DHT22;26635;-35.248;149.138;2023-05-07T15:32:03;4.60;95.10
39931;DHT22;26635;-35.248;149.138;2023-05-07T15:34:34;4.60;94.90
39931;DHT22;26635;-35.248;149.138;2023-05-07T15:37:06;4.50;94.30
39931;DHT22;26635;-35.248;149.138;2023-05-07T15:39:36;4.50;94.70
39931;DHT22;26635;-35.248;149.138;2023-05-07T15:42:07;4.50;94.90
39931;DHT22;26635;-35.248;149.138;2023-05-07T15:44:37;4.50;96.60
39931;DHT22;26635;-35.248;149.138;2023-05-07T15:47:07;4.50;95.80